Medal — EBYI — position and weather

sailwx.info

Track history (hours):
 
Tides and Currents Weather Stations Pressure Air Temp Water Temp Dewpoint Dewpoint Depression Visibility Wind Speed Wind Dir Waves Ship Positions

Medal

Last reported at 2018-Jan-25 03:44 UTC. Time now 2018-Feb-17 20:10 UTC.
Position N 39°09' W 009°51'.
Warning: this ship's position is 23 days out of date.

Length 90 m; draft 6.5 m.

Type: Cargo ship. MMSI: 225370000.

Date/timePositionNaut miles runAvg speedWind from/ knotsBaromVisibWave heightAir tempDewpointWater temp
2018-Jan-25 03:44N 39°09' W 009°51'2 8.1
2018-Jan-25 03:30N 39°07' W 009°51'4 8.0
2018-Jan-25 03:00N 39°04' W 009°51'4 8.0
2018-Jan-25 02:30N 38°59' W 009°51'4 7.9
2018-Jan-25 02:00N 38°56' W 009°51'4 8.3
2018-Jan-25 01:30N 38°51' W 009°51'4 8.2
2018-Jan-25 01:00N 38°47' W 009°50'6 7.9
2018-Jan-25 00:17N 38°42' W 009°50'4 7.8
2018-Jan-24 23:49N 38°38' W 009°49'3 7.5
2018-Jan-24 23:29N 38°36' W 009°47'4 7.7
2018-Jan-24 23:00N 38°34' W 009°43'4 7.9
2018-Jan-24 22:30N 38°31' W 009°39'4 7.8
2018-Jan-24 21:58N 38°30' W 009°34'4 8.1
2018-Jan-24 21:30N 38°28' W 009°30'4 8.1
2018-Jan-24 20:59N 38°26' W 009°25'4 8.3
2018-Jan-24 20:30N 38°24' W 009°21'4 8.6
2018-Jan-24 19:59N 38°22' W 009°16'4 7.8
2018-Jan-24 19:30N 38°21' W 009°11'5 8.7
2018-Jan-24 18:57N 38°23' W 009°06'4 8.6
2018-Jan-24 18:31N 38°24' W 009°01'5 9.3
2018-Jan-24 18:00N 38°28' W 008°57'5 7.9
2018-Jan-24 17:21N 38°31' W 008°52'1 0.1
2018-Jan-24 09:11N 38°30' W 008°51'0 0.0
2018-Jan-24 05:04N 38°30' W 008°51'0 0.0
2018-Jan-23 11:27N 38°30' W 008°51'4 6.4
2018-Jan-23 10:45N 38°29' W 008°56'310.4
2018-Jan-23 10:30N 38°27' W 008°59'610.8
2018-Jan-23 10:00N 38°23' W 009°04'711.5
2018-Jan-23 09:26N 38°20' W 009°11'4 9.7
2018-Jan-23 09:00N 38°21' W 009°16'510.3
2018-Jan-23 08:30N 38°23' W 009°23'510.4
2018-Jan-23 08:00N 38°24' W 009°29'610.5
2018-Jan-23 07:27N 38°26' W 009°36'510.5
2018-Jan-23 07:00N 38°28' W 009°41'510.9
2018-Jan-23 06:30N 38°30' W 009°48'510.7
2018-Jan-23 06:00N 38°33' W 009°54'510.8
2018-Jan-23 05:30N 38°35' W 009°60'8 9.8
2018-Jan-23 04:43N 38°42' W 010°04'410.6
2018-Jan-23 04:23N 38°45' W 010°05'910.5
2018-Jan-23 03:30N 38°54' W 010°05'18 9.6
2018-Jan-23 01:35N 39°13' W 010°06'  
2018-Jan-19 19:01N 47°33' W 003°42'010.2
2018-Jan-19 18:59N 47°34' W 003°42'510.6
2018-Jan-19 18:30N 47°37' W 003°36'5 9.9
2018-Jan-19 18:01N 47°40' W 003°30'4 8.8
2018-Jan-19 17:30N 47°41' W 003°24'3 6.5
2018-Jan-19 16:58N 47°44' W 003°21'0 0.0
2018-Jan-19 16:28N 47°44' W 003°21'0 0.0
2018-Jan-19 15:58N 47°44' W 003°21'0 0.0
2018-Jan-19 15:28N 47°44' W 003°21'0 0.0
2018-Jan-19 15:00N 47°44' W 003°21'0 0.0
2018-Jan-19 14:30N 47°44' W 003°21'0 0.0
2018-Jan-19 14:00N 47°44' W 003°21'0 0.0
2018-Jan-19 13:30N 47°44' W 003°21'0 0.0
2018-Jan-19 13:00N 47°44' W 003°21'0 0.0
2018-Jan-19 12:29N 47°44' W 003°21'0 0.0
2018-Jan-19 11:59N 47°44' W 003°21'0 0.0
2018-Jan-19 11:29N 47°44' W 003°21'0 0.0
2018-Jan-19 10:59N 47°44' W 003°21'0 0.0
2018-Jan-19 10:29N 47°44' W 003°21'0 0.0
2018-Jan-19 09:58N 47°44' W 003°21'0 0.0
2018-Jan-19 09:28N 47°44' W 003°21'0 0.0
2018-Jan-19 08:58N 47°44' W 003°21'0 0.0
2018-Jan-19 08:28N 47°44' W 003°21'0 0.0
2018-Jan-19 08:00N 47°44' W 003°21'0 0.0
2018-Jan-19 07:30N 47°44' W 003°21'0 0.0
2018-Jan-19 07:00N 47°44' W 003°21'0 0.0
2018-Jan-19 06:30N 47°44' W 003°21'0 0.0
2018-Jan-19 06:00N 47°44' W 003°21'0 0.0
2018-Jan-19 05:29N 47°44' W 003°21'0 0.0
2018-Jan-19 04:59N 47°44' W 003°21'0 0.0
2018-Jan-19 04:29N 47°44' W 003°21'0 0.0
2018-Jan-19 03:56N 47°44' W 003°21'0 0.0
2018-Jan-19 03:28N 47°44' W 003°21'0 0.0
2018-Jan-19 02:58N 47°44' W 003°21'0 0.0
2018-Jan-19 02:28N 47°44' W 003°21'0 0.0
2018-Jan-19 01:58N 47°44' W 003°21'0 0.0
2018-Jan-19 01:28N 47°44' W 003°21'0 0.0
2018-Jan-19 01:00N 47°44' W 003°21'0 0.0
2018-Jan-19 00:30N 47°44' W 003°21'0 0.0
2018-Jan-19 00:00N 47°44' W 003°21'0 0.0
2018-Jan-18 23:30N 47°44' W 003°21'0 0.0
2018-Jan-18 23:00N 47°44' W 003°21'0 0.0
2018-Jan-18 22:29N 47°44' W 003°21'0 0.0
2018-Jan-18 21:59N 47°44' W 003°21'0 0.0
2018-Jan-18 21:29N 47°44' W 003°21'0 0.0
2018-Jan-18 20:59N 47°44' W 003°21'0 0.0
2018-Jan-18 20:28N 47°44' W 003°21'0 0.0
2018-Jan-18 19:58N 47°44' W 003°21'0 0.0
2018-Jan-18 19:28N 47°44' W 003°21'0 0.0
2018-Jan-18 18:58N 47°44' W 003°21'0 0.0
2018-Jan-18 18:28N 47°44' W 003°21'0 0.0
2018-Jan-18 18:00N 47°44' W 003°21'0 0.0
2018-Jan-18 17:30N 47°44' W 003°21'0 0.0
2018-Jan-18 17:00N 47°44' W 003°21'0 0.0
2018-Jan-18 16:30N 47°44' W 003°21'0 0.0
2018-Jan-18 15:59N 47°44' W 003°21'0 0.0
2018-Jan-18 15:29N 47°44' W 003°21'0 0.0
2018-Jan-18 14:59N 47°44' W 003°21'0 0.0
2018-Jan-18 14:29N 47°44' W 003°21'0 0.0
2018-Jan-18 13:59N 47°44' W 003°21'0 0.0
2018-Jan-18 13:28N 47°44' W 003°21'0 0.0
2018-Jan-18 12:58N 47°44' W 003°21'0 0.0
2018-Jan-18 12:28N 47°44' W 003°21'0 0.0
2018-Jan-18 11:58N 47°44' W 003°21'0 0.0
2018-Jan-18 11:31N 47°44' W 003°21'0 0.0
2018-Jan-18 11:00N 47°44' W 003°21'0 0.0
2018-Jan-18 10:30N 47°44' W 003°21'0 0.0
2018-Jan-18 10:00N 47°44' W 003°21'0 0.0
2018-Jan-18 09:30N 47°44' W 003°21'0 0.0
2018-Jan-18 08:59N 47°44' W 003°21'0 0.0
2018-Jan-18 08:29N 47°44' W 003°21'0 0.0
2018-Jan-18 07:59N 47°44' W 003°21'0 0.0
2018-Jan-18 07:29N 47°44' W 003°21'0 0.0
2018-Jan-18 06:58N 47°44' W 003°21'0 0.0
2018-Jan-18 06:28N 47°44' W 003°21'0 0.0
2018-Jan-18 05:58N 47°44' W 003°21'0 0.0
2018-Jan-18 05:28N 47°44' W 003°21'0 0.0
2018-Jan-18 04:58N 47°44' W 003°21'0 0.0
2018-Jan-18 04:30N 47°44' W 003°21'0 0.0
2018-Jan-18 04:00N 47°44' W 003°21'0 0.0
2018-Jan-18 03:30N 47°44' W 003°21'0 0.0
2018-Jan-18 03:00N 47°44' W 003°21'0 0.0
2018-Jan-18 02:30N 47°44' W 003°21'0 0.0
2018-Jan-18 01:59N 47°44' W 003°21'0 0.0
2018-Jan-18 01:29N 47°44' W 003°21'0 0.0
2018-Jan-18 00:59N 47°44' W 003°21'0 0.0
2018-Jan-17 23:58N 47°44' W 003°21'0 0.0
2018-Jan-17 23:55N 47°44' W 003°21'  
Track history (hours):
 
Tides and Currents Weather Stations Pressure Air Temp Water Temp Dewpoint Dewpoint Depression Visibility Wind Speed Wind Dir Waves Ship Positions

Medal

Last reported at 2018-Jan-25 03:44 UTC. Time now 2018-Feb-17 20:10 UTC.
Position N 39°09' W 009°51'.
Warning: this ship's position is 23 days out of date.

Length 90 m; draft 6.5 m.

Type: Cargo ship. MMSI: 225370000.

Date/timePositionNaut miles runAvg speedWind from/ knotsBaromVisibWave heightAir tempDewpointWater temp
2018-Jan-25 03:44N 39°09' W 009°51'2 8.1
2018-Jan-25 03:30N 39°07' W 009°51'4 8.0
2018-Jan-25 03:00N 39°04' W 009°51'4 8.0
2018-Jan-25 02:30N 38°59' W 009°51'4 7.9
2018-Jan-25 02:00N 38°56' W 009°51'4 8.3
2018-Jan-25 01:30N 38°51' W 009°51'4 8.2
2018-Jan-25 01:00N 38°47' W 009°50'6 7.9
2018-Jan-25 00:17N 38°42' W 009°50'4 7.8
2018-Jan-24 23:49N 38°38' W 009°49'3 7.5
2018-Jan-24 23:29N 38°36' W 009°47'4 7.7
2018-Jan-24 23:00N 38°34' W 009°43'4 7.9
2018-Jan-24 22:30N 38°31' W 009°39'4 7.8
2018-Jan-24 21:58N 38°30' W 009°34'4 8.1
2018-Jan-24 21:30N 38°28' W 009°30'4 8.1
2018-Jan-24 20:59N 38°26' W 009°25'4 8.3
2018-Jan-24 20:30N 38°24' W 009°21'4 8.6
2018-Jan-24 19:59N 38°22' W 009°16'4 7.8
2018-Jan-24 19:30N 38°21' W 009°11'5 8.7
2018-Jan-24 18:57N 38°23' W 009°06'4 8.6
2018-Jan-24 18:31N 38°24' W 009°01'5 9.3
2018-Jan-24 18:00N 38°28' W 008°57'5 7.9
2018-Jan-24 17:21N 38°31' W 008°52'1 0.1
2018-Jan-24 09:11N 38°30' W 008°51'0 0.0
2018-Jan-24 05:04N 38°30' W 008°51'0 0.0
2018-Jan-23 11:27N 38°30' W 008°51'4 6.4
2018-Jan-23 10:45N 38°29' W 008°56'310.4
2018-Jan-23 10:30N 38°27' W 008°59'610.8
2018-Jan-23 10:00N 38°23' W 009°04'711.5
2018-Jan-23 09:26N 38°20' W 009°11'4 9.7
2018-Jan-23 09:00N 38°21' W 009°16'510.3
2018-Jan-23 08:30N 38°23' W 009°23'510.4
2018-Jan-23 08:00N 38°24' W 009°29'610.5
2018-Jan-23 07:27N 38°26' W 009°36'510.5
2018-Jan-23 07:00N 38°28' W 009°41'510.9
2018-Jan-23 06:30N 38°30' W 009°48'510.7
2018-Jan-23 06:00N 38°33' W 009°54'510.8
2018-Jan-23 05:30N 38°35' W 009°60'8 9.8
2018-Jan-23 04:43N 38°42' W 010°04'410.6
2018-Jan-23 04:23N 38°45' W 010°05'910.5
2018-Jan-23 03:30N 38°54' W 010°05'18 9.6
2018-Jan-23 01:35N 39°13' W 010°06'  
2018-Jan-19 19:01N 47°33' W 003°42'010.2
2018-Jan-19 18:59N 47°34' W 003°42'510.6
2018-Jan-19 18:30N 47°37' W 003°36'5 9.9
2018-Jan-19 18:01N 47°40' W 003°30'4 8.8
2018-Jan-19 17:30N 47°41' W 003°24'3 6.5
2018-Jan-19 16:58N 47°44' W 003°21'0 0.0
2018-Jan-19 16:28N 47°44' W 003°21'0 0.0
2018-Jan-19 15:58N 47°44' W 003°21'0 0.0
2018-Jan-19 15:28N 47°44' W 003°21'0 0.0
2018-Jan-19 15:00N 47°44' W 003°21'0 0.0
2018-Jan-19 14:30N 47°44' W 003°21'0 0.0
2018-Jan-19 14:00N 47°44' W 003°21'0 0.0
2018-Jan-19 13:30N 47°44' W 003°21'0 0.0
2018-Jan-19 13:00N 47°44' W 003°21'0 0.0
2018-Jan-19 12:29N 47°44' W 003°21'0 0.0
2018-Jan-19 11:59N 47°44' W 003°21'0 0.0
2018-Jan-19 11:29N 47°44' W 003°21'0 0.0
2018-Jan-19 10:59N 47°44' W 003°21'0 0.0
2018-Jan-19 10:29N 47°44' W 003°21'0 0.0
2018-Jan-19 09:58N 47°44' W 003°21'0 0.0
2018-Jan-19 09:28N 47°44' W 003°21'0 0.0
2018-Jan-19 08:58N 47°44' W 003°21'0 0.0
2018-Jan-19 08:28N 47°44' W 003°21'0 0.0
2018-Jan-19 08:00N 47°44' W 003°21'0 0.0
2018-Jan-19 07:30N 47°44' W 003°21'0 0.0
2018-Jan-19 07:00N 47°44' W 003°21'0 0.0
2018-Jan-19 06:30N 47°44' W 003°21'0 0.0
2018-Jan-19 06:00N 47°44' W 003°21'0 0.0
2018-Jan-19 05:29N 47°44' W 003°21'0 0.0
2018-Jan-19 04:59N 47°44' W 003°21'0 0.0
2018-Jan-19 04:29N 47°44' W 003°21'0 0.0
2018-Jan-19 03:56N 47°44' W 003°21'0 0.0
2018-Jan-19 03:28N 47°44' W 003°21'0 0.0
2018-Jan-19 02:58N 47°44' W 003°21'0 0.0
2018-Jan-19 02:28N 47°44' W 003°21'0 0.0
2018-Jan-19 01:58N 47°44' W 003°21'0 0.0
2018-Jan-19 01:28N 47°44' W 003°21'0 0.0
2018-Jan-19 01:00N 47°44' W 003°21'0 0.0
2018-Jan-19 00:30N 47°44' W 003°21'0 0.0
2018-Jan-19 00:00N 47°44' W 003°21'0 0.0
2018-Jan-18 23:30N 47°44' W 003°21'0 0.0
2018-Jan-18 23:00N 47°44' W 003°21'0 0.0
2018-Jan-18 22:29N 47°44' W 003°21'0 0.0
2018-Jan-18 21:59N 47°44' W 003°21'0 0.0
2018-Jan-18 21:29N 47°44' W 003°21'0 0.0
2018-Jan-18 20:59N 47°44' W 003°21'0 0.0
2018-Jan-18 20:28N 47°44' W 003°21'0 0.0
2018-Jan-18 19:58N 47°44' W 003°21'0 0.0
2018-Jan-18 19:28N 47°44' W 003°21'0 0.0
2018-Jan-18 18:58N 47°44' W 003°21'0 0.0
2018-Jan-18 18:28N 47°44' W 003°21'0 0.0
2018-Jan-18 18:00N 47°44' W 003°21'0 0.0
2018-Jan-18 17:30N 47°44' W 003°21'0 0.0
2018-Jan-18 17:00N 47°44' W 003°21'0 0.0
2018-Jan-18 16:30N 47°44' W 003°21'0 0.0
2018-Jan-18 15:59N 47°44' W 003°21'0 0.0
2018-Jan-18 15:29N 47°44' W 003°21'0 0.0
2018-Jan-18 14:59N 47°44' W 003°21'0 0.0
2018-Jan-18 14:29N 47°44' W 003°21'0 0.0
2018-Jan-18 13:59N 47°44' W 003°21'0 0.0
2018-Jan-18 13:28N 47°44' W 003°21'0 0.0
2018-Jan-18 12:58N 47°44' W 003°21'0 0.0
2018-Jan-18 12:28N 47°44' W 003°21'0 0.0
2018-Jan-18 11:58N 47°44' W 003°21'0 0.0
2018-Jan-18 11:31N 47°44' W 003°21'0 0.0
2018-Jan-18 11:00N 47°44' W 003°21'0 0.0
2018-Jan-18 10:30N 47°44' W 003°21'0 0.0
2018-Jan-18 10:00N 47°44' W 003°21'0 0.0
2018-Jan-18 09:30N 47°44' W 003°21'0 0.0
2018-Jan-18 08:59N 47°44' W 003°21'0 0.0
2018-Jan-18 08:29N 47°44' W 003°21'0 0.0
2018-Jan-18 07:59N 47°44' W 003°21'0 0.0
2018-Jan-18 07:29N 47°44' W 003°21'0 0.0
2018-Jan-18 06:58N 47°44' W 003°21'0 0.0
2018-Jan-18 06:28N 47°44' W 003°21'0 0.0
2018-Jan-18 05:58N 47°44' W 003°21'0 0.0
2018-Jan-18 05:28N 47°44' W 003°21'0 0.0
2018-Jan-18 04:58N 47°44' W 003°21'0 0.0
2018-Jan-18 04:30N 47°44' W 003°21'0 0.0
2018-Jan-18 04:00N 47°44' W 003°21'0 0.0
2018-Jan-18 03:30N 47°44' W 003°21'0 0.0
2018-Jan-18 03:00N 47°44' W 003°21'0 0.0
2018-Jan-18 02:30N 47°44' W 003°21'0 0.0
2018-Jan-18 01:59N 47°44' W 003°21'0 0.0
2018-Jan-18 01:29N 47°44' W 003°21'0 0.0
2018-Jan-18 00:59N 47°44' W 003°21'0 0.0
2018-Jan-17 23:58N 47°44' W 003°21'0 0.0
2018-Jan-17 23:55N 47°44' W 003°21'  

Dump ship's entire track history